CheckWX is a tool to help pilots better visualize weather data.  It is not intended as a substitute for an official pre-flight weather briefing.

01:12:10 UTC

KDBN METAR
W H 'bud' Barron Airport
Dublin, Georgia, USA
Current

37 mins ago

KDBN 200035Z AUTO 26011G16KT 1SM +TSRA OVC010 22/21 A3014 RMK AO2 LTG DSNT N S AND SW
Observed
Jul-20 @ 00:35 UTC
Wind
  • 260° at 11 KTS
  • Gusting to 16 KTS
Visibility
1 SM
Flight Rules
IFR
Conditions
Heavy Thunderstorm, Heavy Rain
Cloud Levels
  • Overcast at 1,000' AGL
Temperature
22°C / 72°F
Dewpoint
21°C / 70°F
Humidity
94%
Altimeter
30.14" Hg
Pressure
1020.62 hPa
Previous

57 mins ago

KDBN 200015Z AUTO 17013G20KT 10SM RA BKN017 OVC023 23/21 A3017 RMK AO2 LTG DSNT E AND SW
Observed
Jul-20 @ 00:15 UTC
Wind
  • 170° at 13 KTS
  • Gusting to 20 KTS
Visibility
10 SM
Flight Rules
MVFR
Conditions
Rain
Cloud Levels
  • Broken at 1,700' AGL
  • Overcast at 2,300' AGL
Temperature
23°C / 73°F
Dewpoint
21°C / 70°F
Humidity
89%
Altimeter
30.17" Hg
Pressure
1021.72 hPa
Previous

1 hour ago

KDBN 192355Z AUTO 19016G23KT 10SM BKN023 BKN027 BKN046 25/21 A3013 RMK AO2 LTG DSNT E THRU SW
Observed
Jul-19 @ 23:55 UTC
Wind
  • 190° at 16 KTS
  • Gusting to 23 KTS
Visibility
10 SM
Flight Rules
MVFR
Cloud Levels
  • Broken at 2,300' AGL
  • Broken at 2,700' AGL
  • Broken at 4,600' AGL
Temperature
25°C / 77°F
Dewpoint
21°C / 70°F
Humidity
79%
Altimeter
30.13" Hg
Pressure
1020.32 hPa